Česky Dansk Deutsch English Español Suomi Français Magyar Italiano Nederlands norsk Polski Português svenska Türkçe

 

Het Weer

Campinas Aeroporto (Brazilië)

23:00, 20 augustus 2016 (GMT)

NWNNE
WE
SWSSE
Home            
Campinas Aeroporto Marte Civ / Mil Guarulhos Civ / Mil Sao Paulo/Congonhas Aeroporto Pirassununga Sao Jose Dos Campo Sao Carlos Santos Aeroporto Pocos De Caldas Guaratingueta Bauru Leite Lopes / Ribeir Resende Paranagua Curitiba Curitiba Aeroporto Rio De Janeiro-Santa Cruz Ab Uberaba Rio / Jacarepagua Afonsos Aeroporto Barbacena Galeao Rio De Janeiro Aeroporto

Om een weerknop op uw website of weblog te plaatsen, copieer onderstaande code en plak die in uw pagina. In het eerste vakje staat HTML-code, in het tweede vakje UBB-code.


Add to Google

Details

Visibility: 8000 m, 8.0 km, 26247 ft, 5.0 miles
Het Weer:light rain
Temperature:20°C, 68°F
Dew-point:16°C, 61°F
Atmospheric pressure:1014 hPa, 760.6 mmHg, 29.94 inHg, 1.001 atm
Relative humidity:77.8 %
METAR:SBKP 202300Z 00000KT 8000 -RA NSC 20/16 Q1014

Snelkoppelingen

Actuele weersinformatie van de hele wereld. Voeg locaties toe met het plus (+) symbool. Deze snelkoppelingen kunnen worden toegevoegd aan Google.

Lid van de Technetium groep

website free tracking
StatCounter NetStat W3C Validator

24-10-2020 02:44:24
astro.technetium.be money.technetium.be phote.technetium.be tafeltennistafel.technetium.be www.ligfiets.net